createdAt,value
2022-12-11T00:00:55.753Z,23.20
2022-12-11T00:01:55.786Z,23.40
2022-12-11T00:02:55.779Z,23.40
2022-12-11T00:03:55.710Z,23.50
2022-12-11T00:04:55.701Z,24.60
2022-12-11T00:05:55.687Z,24.50
2022-12-11T00:06:55.676Z,25.10
2022-12-11T00:07:55.756Z,24.70
2022-12-11T00:08:55.648Z,24.90
2022-12-11T00:09:55.658Z,25.70
2022-12-11T00:10:55.625Z,25.80
2022-12-11T00:11:55.615Z,25.70
2022-12-11T00:12:55.623Z,26.40
2022-12-11T00:13:55.586Z,25.60
2022-12-11T00:14:55.571Z,26.20
2022-12-11T00:15:55.561Z,26.50
2022-12-11T00:16:55.604Z,26.40
2022-12-11T00:17:55.549Z,25.70
2022-12-11T00:18:55.523Z,26.00
2022-12-11T00:19:55.516Z,26.60
2022-12-11T00:20:55.495Z,26.50
2022-12-11T00:21:55.481Z,26.50
2022-12-11T00:22:55.490Z,26.50
2022-12-11T00:23:55.457Z,25.70
2022-12-11T00:24:55.442Z,24.20
2022-12-11T00:25:55.449Z,25.30
2022-12-11T00:26:55.440Z,24.30
2022-12-11T00:27:55.428Z,24.40
2022-12-11T00:28:55.393Z,24.40
2022-12-11T00:29:55.378Z,25.30
2022-12-11T00:30:55.370Z,24.20
2022-12-11T00:31:55.399Z,24.40
2022-12-11T00:32:55.351Z,24.40
2022-12-11T00:33:55.356Z,24.90
2022-12-11T00:34:55.318Z,24.80
2022-12-11T00:35:55.306Z,25.30
2022-12-11T00:36:55.295Z,24.80
2022-12-11T00:37:55.275Z,25.00
2022-12-11T00:38:55.280Z,26.10
2022-12-11T00:39:55.252Z,25.90
2022-12-11T00:40:55.239Z,25.90
2022-12-11T00:41:55.250Z,25.60
2022-12-11T00:42:55.217Z,25.60
2022-12-11T00:43:55.213Z,25.90
2022-12-11T00:44:55.188Z,24.90
2022-12-11T00:45:55.200Z,24.90
2022-12-11T00:46:55.164Z,24.70
2022-12-11T00:47:55.155Z,24.20
2022-12-11T00:48:55.162Z,24.70
2022-12-11T00:49:55.125Z,25.10
2022-12-11T00:50:55.114Z,24.40
2022-12-11T00:51:55.102Z,25.20
2022-12-11T00:52:55.089Z,25.70
2022-12-11T00:53:55.087Z,25.10
2022-12-11T00:54:55.061Z,26.90
2022-12-11T00:55:55.048Z,27.80
2022-12-11T00:56:55.036Z,28.40
2022-12-11T00:57:55.051Z,28.00
2022-12-11T00:58:55.030Z,27.90
2022-12-11T00:59:54.999Z,27.60
2022-12-11T01:00:55.135Z,27.10
2022-12-11T01:01:54.974Z,26.40
2022-12-11T01:02:55.029Z,25.90
2022-12-11T01:03:54.986Z,26.10
2022-12-11T01:04:54.938Z,28.10
2022-12-11T01:05:54.921Z,27.40
2022-12-11T01:06:54.909Z,27.20
2022-12-11T01:07:54.952Z,26.30
2022-12-11T01:08:54.900Z,26.80
2022-12-11T01:09:54.869Z,27.90
2022-12-11T01:10:54.900Z,27.90
2022-12-11T01:11:54.847Z,27.60
2022-12-11T01:12:54.834Z,26.80
2022-12-11T01:13:54.855Z,27.90
2022-12-11T01:14:54.814Z,28.20
2022-12-11T01:15:54.842Z,29.20
2022-12-11T01:16:54.837Z,31.10
2022-12-11T01:17:54.772Z,29.80
2022-12-11T01:18:54.777Z,30.60
2022-12-11T01:19:54.748Z,31.90
2022-12-11T01:20:54.737Z,30.90
2022-12-11T01:21:54.723Z,32.10
2022-12-11T01:22:54.711Z,32.10
2022-12-11T01:23:54.714Z,30.80
2022-12-11T01:24:54.687Z,31.20
2022-12-11T01:25:54.670Z,29.70
2022-12-11T01:26:54.661Z,28.10
2022-12-11T01:27:54.648Z,27.70
2022-12-11T01:28:54.655Z,28.10
2022-12-11T01:29:54.642Z,27.30
2022-12-11T01:30:54.666Z,26.30
2022-12-11T01:31:54.596Z,26.80
2022-12-11T01:32:54.592Z,26.50
2022-12-11T01:33:54.598Z,27.60
2022-12-11T01:34:54.567Z,27.70
2022-12-11T01:35:54.557Z,26.70
2022-12-11T01:36:54.537Z,28.20
2022-12-11T01:37:54.523Z,27.40
2022-12-11T01:38:54.557Z,26.80
2022-12-11T01:39:54.497Z,26.70
2022-12-11T01:40:54.498Z,26.60
2022-12-11T01:41:54.470Z,27.30
2022-12-11T01:42:54.462Z,27.40
2022-12-11T01:43:54.475Z,27.00
2022-12-11T01:44:54.436Z,26.80
2022-12-11T01:45:54.466Z,27.60
2022-12-11T01:46:54.416Z,27.20
2022-12-11T01:47:54.401Z,26.30
2022-12-11T01:48:54.387Z,26.70
2022-12-11T01:49:54.385Z,26.60
2022-12-11T01:50:54.365Z,25.80
2022-12-11T01:51:54.342Z,25.80
2022-12-11T01:52:54.333Z,24.70
2022-12-11T01:53:54.319Z,24.60
2022-12-11T01:54:54.322Z,24.40
2022-12-11T01:55:54.293Z,24.70
2022-12-11T01:56:54.280Z,24.10
2022-12-11T01:57:54.267Z,23.30
2022-12-11T01:58:54.254Z,22.10
2022-12-11T01:59:54.258Z,22.60
2022-12-11T02:00:54.287Z,22.30
2022-12-11T02:01:54.248Z,22.50
2022-12-11T02:02:54.264Z,22.00
2022-12-11T02:03:54.191Z,22.00
2022-12-11T02:04:54.191Z,22.10
2022-12-11T02:05:54.164Z,22.80
2022-12-11T02:06:54.179Z,23.00
2022-12-11T02:07:54.197Z,22.70
2022-12-11T02:08:54.129Z,22.70
2022-12-11T02:09:54.132Z,21.90
2022-12-11T02:10:54.117Z,23.60
2022-12-11T02:11:54.096Z,23.10
2022-12-11T02:12:54.105Z,23.40
2022-12-11T02:13:54.064Z,21.90
2022-12-11T02:14:54.066Z,21.90
2022-12-11T02:15:54.054Z,21.50
2022-12-11T02:16:54.026Z,20.80
2022-12-11T02:17:54.034Z,21.40
2022-12-11T02:18:54.003Z,20.20
2022-12-11T02:19:54.010Z,21.00
2022-12-11T02:20:53.982Z,21.30
2022-12-11T02:21:53.988Z,20.70
2022-12-11T02:22:53.951Z,21.20
2022-12-11T02:23:53.969Z,20.90
2022-12-11T02:24:53.938Z,20.70
2022-12-11T02:25:53.908Z,21.10
2022-12-11T02:26:53.901Z,21.30
2022-12-11T02:27:53.883Z,20.70
2022-12-11T02:28:53.871Z,21.40
2022-12-11T02:29:53.874Z,21.10
2022-12-11T02:30:53.848Z,20.90
2022-12-11T02:31:53.946Z,20.20
2022-12-11T02:32:53.820Z,21.10
2022-12-11T02:33:53.829Z,21.20
2022-12-11T02:34:53.815Z,21.70
2022-12-11T02:35:53.786Z,21.40
2022-12-11T02:36:53.774Z,21.80
2022-12-11T02:37:53.757Z,22.00
2022-12-11T02:38:53.742Z,20.20
2022-12-11T02:39:53.731Z,20.90
2022-12-11T02:40:53.735Z,21.10
2022-12-11T02:41:53.708Z,21.80
2022-12-11T02:42:53.693Z,21.00
2022-12-11T02:43:53.678Z,20.60
2022-12-11T02:44:53.687Z,19.90
2022-12-11T02:45:53.692Z,20.40
2022-12-11T02:46:53.654Z,20.40
2022-12-11T02:47:53.634Z,20.50
2022-12-11T02:48:53.618Z,20.50
2022-12-11T02:49:53.625Z,21.50
2022-12-11T02:50:53.609Z,21.10
2022-12-11T02:51:53.579Z,21.40
2022-12-11T02:52:53.566Z,21.20
2022-12-11T02:53:53.552Z,21.40
2022-12-11T02:54:53.543Z,21.00
2022-12-11T02:55:53.540Z,21.30
2022-12-11T02:56:53.519Z,20.90
2022-12-11T02:57:53.502Z,20.80
2022-12-11T02:58:58.338Z,21.00
2022-12-11T02:59:53.478Z,21.90
2022-12-11T03:00:53.484Z,21.30
2022-12-11T03:01:53.451Z,21.10
2022-12-11T03:02:53.450Z,22.40
2022-12-11T03:03:53.427Z,23.80
2022-12-11T03:04:53.413Z,23.10
2022-12-11T03:05:53.451Z,23.30
2022-12-11T03:06:53.395Z,23.60
2022-12-11T03:07:53.426Z,24.00
2022-12-11T03:08:53.367Z,23.90
2022-12-11T03:09:53.349Z,23.90
2022-12-11T03:10:53.352Z,24.40
2022-12-11T03:11:53.324Z,25.60
2022-12-11T03:12:54.021Z,24.40
2022-12-11T03:13:53.302Z,25.30
2022-12-11T03:14:53.288Z,25.70
2022-12-11T03:15:53.293Z,25.50
2022-12-11T03:16:53.280Z,24.30
2022-12-11T03:17:53.253Z,24.60
2022-12-11T03:18:53.240Z,24.30
2022-12-11T03:19:53.223Z,24.60
2022-12-11T03:20:53.239Z,24.70
2022-12-11T03:21:53.327Z,24.30
2022-12-11T03:22:53.190Z,24.30
2022-12-11T03:23:53.965Z,25.30
2022-12-11T03:24:53.161Z,25.00
2022-12-11T03:25:53.159Z,24.40
2022-12-11T03:26:56.311Z,24.30
2022-12-11T03:27:53.127Z,24.40
2022-12-11T03:28:53.125Z,24.30
2022-12-11T03:29:53.132Z,23.30
2022-12-11T03:30:53.195Z,22.30
2022-12-11T03:31:53.075Z,23.60
2022-12-11T03:32:53.060Z,23.30
2022-12-11T03:33:53.044Z,24.40
2022-12-11T03:34:58.046Z,24.50
2022-12-11T03:35:53.050Z,24.10
2022-12-11T03:36:53.022Z,23.20
2022-12-11T03:37:53.008Z,24.80
2022-12-11T03:38:52.993Z,24.80
2022-12-11T03:39:52.973Z,24.60
2022-12-11T03:40:52.974Z,24.40
2022-12-11T03:41:52.941Z,24.30
2022-12-11T03:42:52.937Z,24.60
2022-12-11T03:43:52.926Z,24.70
2022-12-11T03:44:52.905Z,24.80
2022-12-11T03:45:52.994Z,24.60
2022-12-11T03:46:52.877Z,24.20
2022-12-11T03:47:52.865Z,24.60
2022-12-11T03:48:52.860Z,23.40
2022-12-11T03:49:52.844Z,23.80
2022-12-11T03:50:52.855Z,24.20
2022-12-11T03:51:52.820Z,23.40
2022-12-11T03:52:52.805Z,22.80
2022-12-11T03:53:52.810Z,22.50
2022-12-11T03:54:52.780Z,23.20
2022-12-11T03:55:52.782Z,23.60
2022-12-11T03:56:52.755Z,22.50
2022-12-11T03:57:52.742Z,23.80
2022-12-11T03:58:52.725Z,24.50
2022-12-11T03:59:52.724Z,22.80
2022-12-11T04:00:52.721Z,23.10
2022-12-11T04:01:52.727Z,23.90
2022-12-11T04:02:52.678Z,24.90
2022-12-11T04:03:52.726Z,24.10
2022-12-11T04:04:52.652Z,25.40
2022-12-11T04:05:52.655Z,25.00
2022-12-11T04:06:52.627Z,25.10
2022-12-11T04:07:52.649Z,25.20
2022-12-11T04:08:52.601Z,25.30
2022-12-11T04:09:52.615Z,24.80
2022-12-11T04:10:52.608Z,25.50
2022-12-11T04:11:52.564Z,24.40
2022-12-11T04:12:52.550Z,26.20
2022-12-11T04:13:52.538Z,25.90
2022-12-11T04:14:52.523Z,25.40
2022-12-11T04:15:52.564Z,25.80
2022-12-11T04:16:52.511Z,26.30
2022-12-11T04:17:52.486Z,25.90
2022-12-11T04:18:52.475Z,26.20
2022-12-11T04:19:52.463Z,26.00
2022-12-11T04:20:52.446Z,25.90
2022-12-11T04:21:52.450Z,26.70
2022-12-11T04:22:52.421Z,26.80
2022-12-11T04:23:52.409Z,25.60
2022-12-11T04:24:52.395Z,26.00
2022-12-11T04:25:52.403Z,26.40
2022-12-11T04:26:52.392Z,26.10
2022-12-11T04:27:52.362Z,26.50
2022-12-11T04:28:52.354Z,26.20
2022-12-11T04:29:52.335Z,26.80
2022-12-11T04:30:52.403Z,26.20
2022-12-11T04:31:52.321Z,27.60
2022-12-11T04:32:52.297Z,27.70
2022-12-11T04:33:52.283Z,27.70
2022-12-11T04:34:52.273Z,28.60
2022-12-11T04:35:52.264Z,28.90
2022-12-11T04:36:52.265Z,28.50
2022-12-11T04:37:52.236Z,27.50
2022-12-11T04:38:52.217Z,28.40
2022-12-11T04:39:52.206Z,28.10
2022-12-11T04:40:52.206Z,29.30
2022-12-11T04:41:52.220Z,29.10
2022-12-11T04:42:52.182Z,28.00
2022-12-11T04:43:52.159Z,28.40
2022-12-11T04:44:52.141Z,28.50
2022-12-11T04:45:52.141Z,29.30
2022-12-11T04:46:52.189Z,28.90
2022-12-11T04:47:52.108Z,29.30
2022-12-11T04:48:57.103Z,28.20
2022-12-11T04:49:52.080Z,28.90
2022-12-11T04:50:52.065Z,28.80
2022-12-11T04:51:52.076Z,28.30
2022-12-11T04:52:52.042Z,28.90
2022-12-11T04:53:52.033Z,28.50
2022-12-11T04:54:52.013Z,28.90
2022-12-11T04:55:52.006Z,28.80
2022-12-11T04:56:52.003Z,28.30
2022-12-11T04:57:51.998Z,28.00
2022-12-11T04:58:51.965Z,29.00
2022-12-11T04:59:51.954Z,28.00
2022-12-11T05:00:51.948Z,29.40
2022-12-11T05:01:51.969Z,29.30
2022-12-11T05:02:51.956Z,29.20
2022-12-11T05:03:51.901Z,29.10
2022-12-11T05:04:51.889Z,28.70
2022-12-11T05:05:51.908Z,29.40
2022-12-11T05:06:51.880Z,29.90
2022-12-11T05:07:51.913Z,29.20
2022-12-11T05:08:51.833Z,29.00
2022-12-11T05:09:51.824Z,29.50
2022-12-11T05:10:51.810Z,30.00
2022-12-11T05:11:51.811Z,30.20
2022-12-11T05:12:51.790Z,29.30
2022-12-11T05:13:51.790Z,28.90
2022-12-11T05:14:51.759Z,29.00
2022-12-11T05:15:51.843Z,29.50
2022-12-11T05:16:51.749Z,29.40
2022-12-11T05:17:51.727Z,30.20
2022-12-11T05:18:51.712Z,28.50
2022-12-11T05:19:51.698Z,28.80
2022-12-11T05:20:51.683Z,29.50
2022-12-11T05:21:51.710Z,28.90
2022-12-11T05:22:51.670Z,28.60
2022-12-11T05:23:51.647Z,28.90
2022-12-11T05:24:51.630Z,28.50
2022-12-11T05:25:51.619Z,28.50
2022-12-11T05:26:51.609Z,27.90
2022-12-11T05:27:51.614Z,26.80
2022-12-11T05:28:51.582Z,27.80
2022-12-11T05:29:54.867Z,28.70
2022-12-11T05:30:52.616Z,29.10
2022-12-11T05:31:51.543Z,28.40
2022-12-11T05:32:51.546Z,29.30
2022-12-11T05:33:51.542Z,28.40
2022-12-11T05:34:51.504Z,29.10
2022-12-11T05:35:51.497Z,29.20
2022-12-11T05:36:51.484Z,29.40
2022-12-11T05:37:51.497Z,29.50
2022-12-11T05:38:51.456Z,29.50
2022-12-11T05:39:51.445Z,29.10
2022-12-11T05:40:51.428Z,28.30
2022-12-11T05:41:51.418Z,29.50
2022-12-11T05:42:51.420Z,28.90
2022-12-11T05:43:51.392Z,29.00
2022-12-11T05:44:51.383Z,28.80
2022-12-11T05:45:57.181Z,29.20
2022-12-11T05:46:52.489Z,30.60
2022-12-11T05:47:51.364Z,30.20
2022-12-11T05:48:51.327Z,29.80
2022-12-11T05:49:51.317Z,29.90
2022-12-11T05:50:51.304Z,30.00
2022-12-11T05:51:51.290Z,29.40
2022-12-11T05:52:51.290Z,29.20
2022-12-11T05:53:51.282Z,30.20
2022-12-11T05:54:51.255Z,29.30
2022-12-11T05:55:51.244Z,29.30
2022-12-11T05:56:51.230Z,30.30
2022-12-11T05:57:51.237Z,29.50
2022-12-11T05:58:51.204Z,29.50
2022-12-11T05:59:51.192Z,30.00
2022-12-11T06:00:51.176Z,28.60
2022-12-11T06:01:51.282Z,29.90
2022-12-11T06:02:51.288Z,29.40
2022-12-11T06:03:51.146Z,29.40
2022-12-11T06:04:51.127Z,29.30
2022-12-11T06:05:51.116Z,30.10
2022-12-11T06:06:51.101Z,29.90
2022-12-11T06:07:51.130Z,29.80
2022-12-11T06:08:51.090Z,29.10
2022-12-11T06:09:51.075Z,29.70
2022-12-11T06:10:51.054Z,28.40
2022-12-11T06:11:51.041Z,28.90
2022-12-11T06:12:51.049Z,28.80
2022-12-11T06:13:51.015Z,29.90
2022-12-11T06:14:50.997Z,30.10
2022-12-11T06:15:50.991Z,30.10
2022-12-11T06:16:51.032Z,29.40
2022-12-11T06:17:50.975Z,28.30
2022-12-11T06:18:50.969Z,27.40
2022-12-11T06:19:50.946Z,27.70
2022-12-11T06:20:50.924Z,27.60
2022-12-11T06:21:50.911Z,28.10
2022-12-11T06:22:50.915Z,27.60
2022-12-11T06:23:50.891Z,28.40
2022-12-11T06:24:50.870Z,29.20
2022-12-11T06:25:50.861Z,28.80
2022-12-11T06:26:50.848Z,29.20
2022-12-11T06:27:50.857Z,29.20
2022-12-11T06:28:50.823Z,28.60
2022-12-11T06:29:50.832Z,27.90
2022-12-11T06:30:50.801Z,27.60
2022-12-11T06:31:50.818Z,27.90
2022-12-11T06:32:50.785Z,27.60
2022-12-11T06:33:50.760Z,28.50
2022-12-11T06:34:50.763Z,28.60
2022-12-11T06:35:50.736Z,29.00
2022-12-11T06:36:50.722Z,29.20
2022-12-11T06:37:50.745Z,29.50
2022-12-11T06:38:50.695Z,28.20
2022-12-11T06:39:50.692Z,28.00
2022-12-11T06:40:50.671Z,28.60
2022-12-11T06:41:50.663Z,29.90
2022-12-11T06:42:50.646Z,30.00
2022-12-11T06:43:50.652Z,29.50
2022-12-11T06:44:50.621Z,28.90
2022-12-11T06:45:50.663Z,28.30
2022-12-11T06:46:50.600Z,29.30
2022-12-11T06:47:50.589Z,28.40
2022-12-11T06:48:50.591Z,28.80
2022-12-11T06:49:50.562Z,30.60
2022-12-11T06:50:50.574Z,29.90
2022-12-11T06:51:50.539Z,30.80
2022-12-11T06:52:50.521Z,29.90
2022-12-11T06:53:50.545Z,29.60
2022-12-11T06:54:50.497Z,29.40
2022-12-11T06:55:50.490Z,28.90
2022-12-11T06:56:50.471Z,28.20
2022-12-11T06:57:50.460Z,27.70
2022-12-11T06:58:50.469Z,27.80
2022-12-11T06:59:50.437Z,27.10
2022-12-11T07:00:50.456Z,27.50
2022-12-11T07:01:50.449Z,26.20
2022-12-11T07:02:50.396Z,27.00
2022-12-11T07:03:50.417Z,26.60
2022-12-11T07:04:54.909Z,25.20
2022-12-11T07:05:50.359Z,25.60
2022-12-11T07:06:50.368Z,26.70
2022-12-11T07:07:50.373Z,25.50
2022-12-11T07:08:50.335Z,25.20
2022-12-11T07:09:50.316Z,25.20
2022-12-11T07:10:50.298Z,26.10
2022-12-11T07:11:50.293Z,26.10
2022-12-11T07:12:50.274Z,25.60
2022-12-11T07:13:50.278Z,25.40
2022-12-11T07:14:50.246Z,26.80
2022-12-11T07:15:50.235Z,25.40
2022-12-11T07:16:50.253Z,25.60
2022-12-11T07:17:50.216Z,25.30
2022-12-11T07:18:50.220Z,25.50
2022-12-11T07:19:50.188Z,25.10
2022-12-11T07:20:50.173Z,26.00
2022-12-11T07:21:50.167Z,26.20
2022-12-11T07:22:50.173Z,26.10
2022-12-11T07:23:50.154Z,25.90
2022-12-11T07:24:50.120Z,25.50
2022-12-11T07:25:50.115Z,26.20
2022-12-11T07:26:50.099Z,25.00
2022-12-11T07:27:50.096Z,24.50
2022-12-11T07:28:50.088Z,25.30
2022-12-11T07:29:50.064Z,24.90
2022-12-11T07:30:50.049Z,26.00
2022-12-11T07:31:50.111Z,25.20
2022-12-11T07:32:50.109Z,25.90
2022-12-11T07:33:50.034Z,26.00
2022-12-11T07:34:52.019Z,26.00
2022-12-11T07:35:49.988Z,25.80
2022-12-11T07:36:49.996Z,27.00
2022-12-11T07:37:49.965Z,27.40
2022-12-11T07:38:50.004Z,27.50
2022-12-11T07:39:49.939Z,27.30
2022-12-11T07:40:49.922Z,27.50
2022-12-11T07:41:49.911Z,27.90
2022-12-11T07:42:49.896Z,27.20
2022-12-11T07:43:49.919Z,27.00
2022-12-11T07:44:49.870Z,26.50
2022-12-11T07:45:49.889Z,27.10
2022-12-11T07:46:49.851Z,26.50
2022-12-11T07:47:49.837Z,26.70
2022-12-11T07:48:49.837Z,26.40
2022-12-11T07:49:49.820Z,26.50
2022-12-11T07:50:49.797Z,25.80
2022-12-11T07:51:49.788Z,26.20
2022-12-11T07:52:49.772Z,26.20
2022-12-11T07:53:49.794Z,25.90
2022-12-11T07:54:49.766Z,26.10
2022-12-11T07:55:49.744Z,25.40
2022-12-11T07:56:53.496Z,25.10
2022-12-11T07:57:49.714Z,25.70
2022-12-11T07:58:49.726Z,24.30
2022-12-11T07:59:49.685Z,25.10
2022-12-11T08:00:49.747Z,25.80
2022-12-11T08:01:49.662Z,25.60
2022-12-11T08:02:49.721Z,25.10
2022-12-11T08:03:49.636Z,25.00
2022-12-11T08:04:49.645Z,25.00
2022-12-11T08:05:49.613Z,24.80
2022-12-11T08:06:49.600Z,25.20
2022-12-11T08:07:49.653Z,25.30
2022-12-11T08:08:49.574Z,25.50
2022-12-11T08:09:49.575Z,24.30
2022-12-11T08:10:49.569Z,24.40
2022-12-11T08:11:49.536Z,24.70
2022-12-11T08:12:49.523Z,24.70
2022-12-11T08:13:49.517Z,24.70
2022-12-11T08:14:49.516Z,23.50
2022-12-11T08:15:49.486Z,24.50
2022-12-11T08:16:49.537Z,24.50
2022-12-11T08:17:49.463Z,25.20
2022-12-11T08:18:49.451Z,25.10
2022-12-11T08:19:49.450Z,24.00
2022-12-11T08:20:49.426Z,24.60
2022-12-11T08:21:49.417Z,25.30
2022-12-11T08:22:50.736Z,25.40
2022-12-11T08:23:49.387Z,25.20
2022-12-11T08:24:49.387Z,24.80
2022-12-11T08:25:49.359Z,24.70
2022-12-11T08:26:49.367Z,23.70
2022-12-11T08:27:49.337Z,25.30
2022-12-11T08:28:49.324Z,24.70
2022-12-11T08:29:49.324Z,25.80
2022-12-11T08:30:49.332Z,26.10
2022-12-11T08:31:49.286Z,25.70
2022-12-11T08:32:49.273Z,25.50
2022-12-11T08:33:49.261Z,25.30
2022-12-11T08:34:49.274Z,26.10
2022-12-11T08:35:49.236Z,26.10
2022-12-11T08:36:49.225Z,25.20
2022-12-11T08:37:49.210Z,25.70
2022-12-11T08:38:49.202Z,25.40
2022-12-11T08:39:49.205Z,25.90
2022-12-11T08:40:49.178Z,25.60
2022-12-11T08:41:49.159Z,25.10
2022-12-11T08:42:49.168Z,25.70
2022-12-11T08:43:49.136Z,26.40
2022-12-11T08:44:49.140Z,28.80
2022-12-11T08:45:49.191Z,31.70
2022-12-11T08:46:49.101Z,30.40
2022-12-11T08:47:49.086Z,30.90
2022-12-11T08:48:49.088Z,27.50
2022-12-11T08:49:49.061Z,25.80
2022-12-11T08:50:49.077Z,24.50
2022-12-11T08:51:49.034Z,23.70
2022-12-11T08:52:49.024Z,23.70
2022-12-11T08:53:49.008Z,25.30
2022-12-11T08:54:48.999Z,24.80
2022-12-11T08:55:49.033Z,24.90
2022-12-11T08:56:52.306Z,26.30
2022-12-11T08:57:48.965Z,24.90
2022-12-11T08:58:48.970Z,24.40
2022-12-11T08:59:48.937Z,24.30
2022-12-11T09:00:48.947Z,24.50
2022-12-11T09:01:48.962Z,25.60
2022-12-11T09:02:48.949Z,26.20
2022-12-11T09:03:48.884Z,24.90
2022-12-11T09:04:48.874Z,25.40
2022-12-11T09:05:48.878Z,23.80
2022-12-11T09:06:48.850Z,24.20
2022-12-11T09:07:48.904Z,24.60
2022-12-11T09:08:52.691Z,24.30
2022-12-11T09:09:48.809Z,24.80
2022-12-11T09:10:48.822Z,25.00
2022-12-11T09:11:48.785Z,25.00
2022-12-11T09:12:48.779Z,25.70
2022-12-11T09:13:48.765Z,25.10
2022-12-11T09:14:48.765Z,25.10
2022-12-11T09:15:48.788Z,25.00
2022-12-11T09:16:48.725Z,24.70
2022-12-11T09:17:48.708Z,24.10
2022-12-11T09:18:48.700Z,24.10
2022-12-11T09:19:48.686Z,23.90
2022-12-11T09:20:48.689Z,23.50
2022-12-11T09:21:48.665Z,23.80
2022-12-11T09:22:48.653Z,23.80
2022-12-11T09:23:48.666Z,24.90
2022-12-11T09:24:48.622Z,25.10
2022-12-11T09:25:48.622Z,26.40
2022-12-11T09:26:48.602Z,25.70
2022-12-11T09:27:48.592Z,25.40
2022-12-11T09:28:48.593Z,23.70
2022-12-11T09:29:48.561Z,24.00
2022-12-11T09:30:48.639Z,24.80
2022-12-11T09:31:48.534Z,25.10
2022-12-11T09:32:48.551Z,24.70
2022-12-11T09:33:48.509Z,23.70
2022-12-11T09:34:48.500Z,23.80
2022-12-11T09:35:48.514Z,24.40
2022-12-11T09:36:48.499Z,25.10
2022-12-11T09:37:48.470Z,24.20
2022-12-11T09:38:48.485Z,24.80
2022-12-11T09:39:48.437Z,24.70
2022-12-11T09:40:48.421Z,25.20
2022-12-11T09:41:48.422Z,25.30
2022-12-11T09:42:48.398Z,25.40
2022-12-11T09:43:48.413Z,26.60
2022-12-11T09:44:48.379Z,25.60
2022-12-11T09:45:48.439Z,24.90
2022-12-11T09:46:48.478Z,25.60
2022-12-11T09:47:48.353Z,25.80
2022-12-11T09:48:48.320Z,25.30
2022-12-11T09:49:48.314Z,25.80
2022-12-11T09:50:48.302Z,25.90
2022-12-11T09:51:48.311Z,25.80
2022-12-11T09:52:48.279Z,25.10
2022-12-11T09:53:48.262Z,25.20
2022-12-11T09:54:48.249Z,25.60
2022-12-11T09:55:48.234Z,25.20
2022-12-11T09:56:48.241Z,25.30
2022-12-11T09:57:48.217Z,25.50
2022-12-11T09:58:48.205Z,24.00
2022-12-11T09:59:48.202Z,24.00
2022-12-11T10:00:48.175Z,24.60
2022-12-11T10:01:48.231Z,24.80
2022-12-11T10:02:48.231Z,25.30
2022-12-11T10:03:48.142Z,25.30
2022-12-11T10:04:48.137Z,22.90
2022-12-11T10:05:48.117Z,23.90
2022-12-11T10:06:48.120Z,23.10
2022-12-11T10:07:48.151Z,24.20
2022-12-11T10:08:48.068Z,23.80
2022-12-11T10:09:48.066Z,23.40
2022-12-11T10:10:48.044Z,23.70
2022-12-11T10:11:54.448Z,25.50
2022-12-11T10:12:48.021Z,26.60
2022-12-11T10:13:48.004Z,24.60
2022-12-11T10:14:48.022Z,22.50
2022-12-11T10:15:48.039Z,23.10
2022-12-11T10:16:47.987Z,23.00
2022-12-11T10:17:47.954Z,23.10
2022-12-11T10:18:47.969Z,21.80
2022-12-11T10:19:47.930Z,21.90
2022-12-11T10:20:47.921Z,21.60
2022-12-11T10:21:47.919Z,21.40
2022-12-11T10:22:47.894Z,21.30
2022-12-11T10:23:47.879Z,22.30
2022-12-11T10:25:47.857Z,23.80
2022-12-11T10:26:47.858Z,23.40
2022-12-11T10:27:47.836Z,23.90
2022-12-11T10:28:47.815Z,23.30
2022-12-11T10:29:47.805Z,24.00
2022-12-11T10:30:47.896Z,24.60
2022-12-11T10:31:47.793Z,24.60
2022-12-11T10:32:47.803Z,25.00
2022-12-11T10:33:47.757Z,24.60
2022-12-11T10:34:47.763Z,24.60
2022-12-11T10:35:47.734Z,24.50
2022-12-11T10:36:47.729Z,25.30
2022-12-11T10:37:47.702Z,24.90
2022-12-11T10:38:47.692Z,25.80
2022-12-11T10:39:47.678Z,24.70
2022-12-11T10:40:47.670Z,25.50
2022-12-11T10:41:47.665Z,25.00
2022-12-11T10:42:47.643Z,25.70
2022-12-11T10:43:47.633Z,24.00
2022-12-11T10:44:47.617Z,23.40
2022-12-11T10:45:47.610Z,23.60
2022-12-11T10:46:47.700Z,23.80
2022-12-11T10:47:47.587Z,23.20
2022-12-11T10:48:47.569Z,22.80
2022-12-11T10:49:47.551Z,25.00
2022-12-11T10:50:47.568Z,24.00
2022-12-11T10:51:47.635Z,25.30
2022-12-11T10:52:47.516Z,25.70
2022-12-11T10:53:47.502Z,25.40
2022-12-11T10:54:47.490Z,25.10
2022-12-11T10:55:47.476Z,22.60
2022-12-11T10:56:47.465Z,24.00
2022-12-11T10:57:47.469Z,24.20
2022-12-11T10:58:47.446Z,26.60
2022-12-11T10:59:47.444Z,27.40
2022-12-11T11:00:47.420Z,27.50
2022-12-11T11:01:47.459Z,27.40
2022-12-11T11:02:47.438Z,27.50
2022-12-11T11:03:47.374Z,28.20
2022-12-11T11:04:47.365Z,28.00
2022-12-11T11:05:49.573Z,30.10
2022-12-11T11:06:47.379Z,31.20
2022-12-11T11:07:47.420Z,29.80
2022-12-11T11:08:47.312Z,29.70
2022-12-11T11:09:47.306Z,29.60
2022-12-11T11:10:47.291Z,30.20
2022-12-11T11:11:47.278Z,30.30
2022-12-11T11:12:47.283Z,26.80
2022-12-11T11:13:47.255Z,25.60
2022-12-11T11:14:47.241Z,23.50
2022-12-11T11:15:47.303Z,23.40
2022-12-11T11:16:47.211Z,22.50
2022-12-11T11:17:54.463Z,21.70
2022-12-11T11:18:47.191Z,21.50
2022-12-11T11:19:47.180Z,21.80
2022-12-11T11:20:47.164Z,21.20
2022-12-11T11:21:47.148Z,21.00
2022-12-11T11:22:47.176Z,20.50
2022-12-11T11:23:51.901Z,20.20
2022-12-11T11:24:47.113Z,20.70
2022-12-11T11:25:47.102Z,19.30
2022-12-11T11:27:12.103Z,20.20
2022-12-11T11:27:48.087Z,20.60
2022-12-11T11:28:47.059Z,21.50
2022-12-11T11:29:51.662Z,21.50
2022-12-11T11:30:48.126Z,20.90
2022-12-11T11:31:47.021Z,20.20
2022-12-11T11:32:47.026Z,20.40
2022-12-11T11:33:46.995Z,21.40
2022-12-11T11:34:46.990Z,21.40
2022-12-11T11:35:46.970Z,20.40
2022-12-11T11:36:46.961Z,20.80
2022-12-11T11:37:46.966Z,20.60
2022-12-11T11:38:46.954Z,19.30
2022-12-11T11:39:46.931Z,19.40
2022-12-11T11:40:46.912Z,17.80
2022-12-11T11:41:46.899Z,17.10
2022-12-11T11:42:46.902Z,17.70
2022-12-11T11:43:46.870Z,19.60
2022-12-11T11:44:46.859Z,19.40
2022-12-11T11:45:46.843Z,19.40
2022-12-11T11:46:46.924Z,19.40
2022-12-11T11:47:46.837Z,17.00
2022-12-11T11:48:46.808Z,16.50
2022-12-11T11:49:46.794Z,17.30
2022-12-11T11:50:46.797Z,16.70
2022-12-11T11:51:46.764Z,17.60
2022-12-11T11:52:46.774Z,17.40
2022-12-11T11:53:46.739Z,17.20
2022-12-11T11:54:46.752Z,16.60
2022-12-11T11:55:46.718Z,16.60
2022-12-11T11:56:46.707Z,16.60
2022-12-11T11:57:46.710Z,16.20
2022-12-11T11:58:46.683Z,16.00
2022-12-11T11:59:46.665Z,16.80
2022-12-11T12:00:46.658Z,16.30
2022-12-11T12:01:46.647Z,16.10
2022-12-11T12:02:46.702Z,16.40
2022-12-11T12:03:46.617Z,16.90
2022-12-11T12:04:46.603Z,16.50
2022-12-11T12:05:46.593Z,16.60
2022-12-11T12:06:50.700Z,16.00
2022-12-11T12:07:46.628Z,16.30
2022-12-11T12:08:46.576Z,17.00
2022-12-11T12:09:46.585Z,16.40
2022-12-11T12:10:46.548Z,15.60
2022-12-11T12:11:46.519Z,16.40
2022-12-11T12:12:46.503Z,15.80
2022-12-11T12:13:50.473Z,14.10
2022-12-11T12:14:53.740Z,14.90
2022-12-11T12:15:47.462Z,14.60
2022-12-11T12:16:53.982Z,14.70
2022-12-11T12:17:51.976Z,15.20
2022-12-11T12:18:46.440Z,13.50
2022-12-11T12:19:46.411Z,14.60
2022-12-11T12:20:46.399Z,15.00
2022-12-11T12:21:46.390Z,15.10
2022-12-11T12:22:46.381Z,15.20
2022-12-11T12:23:46.394Z,15.00
2022-12-11T12:24:46.357Z,14.50
2022-12-11T12:25:46.343Z,14.40
2022-12-11T12:26:46.342Z,14.80
2022-12-11T12:27:53.679Z,15.20
2022-12-11T12:28:47.317Z,15.50
2022-12-11T12:29:46.290Z,14.80
2022-12-11T12:30:46.271Z,15.10
2022-12-11T12:31:46.343Z,15.00
2022-12-11T12:32:46.251Z,15.10
2022-12-11T12:33:47.556Z,15.30
2022-12-11T12:34:46.230Z,15.00
2022-12-11T12:35:46.211Z,14.60
2022-12-11T12:36:46.202Z,14.90
2022-12-11T12:37:46.185Z,15.90
2022-12-11T12:38:47.051Z,15.30
2022-12-11T12:39:46.165Z,15.60
2022-12-11T12:40:46.148Z,15.30
2022-12-11T12:41:46.134Z,15.50
2022-12-11T12:42:46.141Z,15.50
2022-12-11T12:43:46.228Z,16.70
2022-12-11T12:44:46.092Z,16.00
2022-12-11T12:45:46.188Z,16.10
2022-12-11T12:46:46.070Z,16.00
2022-12-11T12:47:50.350Z,15.90
2022-12-11T12:48:46.057Z,16.40
2022-12-11T12:49:46.032Z,14.50
2022-12-11T12:50:46.050Z,15.30
2022-12-11T12:51:46.006Z,15.30
2022-12-11T12:52:45.992Z,14.70
2022-12-11T12:53:46.000Z,14.70